sensor_id;sensor_type;location;lat;lon;timestamp;pressure;altitude;pressure_sealevel;temperature;humidity
14206;BME280;7186;48.800;9.216;2022-08-19T00:01:36;132705.09;;;22.51;100.00
14206;BME280;7186;48.800;9.216;2022-08-19T00:04:04;132705.09;;;22.51;100.00
14206;BME280;7186;48.800;9.216;2022-08-19T00:06:30;133054.50;;;22.50;100.00
14206;BME280;7186;48.800;9.216;2022-08-19T00:08:57;133747.84;;;22.45;100.00
14206;BME280;7186;48.800;9.216;2022-08-19T00:11:26;134094.00;;;22.43;100.00
14206;BME280;7186;48.800;9.216;2022-08-19T00:13:53;134794.19;;;22.41;100.00
14206;BME280;7186;48.800;9.216;2022-08-19T00:16:19;135494.44;;;22.40;100.00
14206;BME280;7186;48.800;9.216;2022-08-19T00:18:45;135830.50;;;22.33;100.00
14206;BME280;7186;48.800;9.216;2022-08-19T00:21:11;134434.56;;;22.38;100.00
14206;BME280;7186;48.800;9.216;2022-08-19T00:23:36;135835.00;;;22.35;100.00
14206;BME280;7186;48.800;9.216;2022-08-19T00:26:06;134784.09;;;22.37;100.00
14206;BME280;7186;48.800;9.216;2022-08-19T00:28:31;135483.16;;;22.35;100.00
14206;BME280;7186;48.800;9.216;2022-08-19T00:30:59;134781.84;;;22.36;100.00
14206;BME280;7186;48.800;9.216;2022-08-19T00:33:24;136175.59;;;22.30;100.00
14206;BME280;7186;48.800;9.216;2022-08-19T00:35:50;136489.97;;;22.13;100.00
14206;BME280;7186;48.800;9.216;2022-08-19T00:38:15;136163.09;;;22.24;100.00
14206;BME280;7186;48.800;9.216;2022-08-19T00:40:43;135823.72;;;22.30;100.00
14206;BME280;7186;48.800;9.216;2022-08-19T00:43:12;136156.28;;;22.21;100.00
14206;BME280;7186;48.800;9.216;2022-08-19T00:45:41;136504.72;;;22.20;100.00
14206;BME280;7186;48.800;9.216;2022-08-19T00:48:08;137209.63;;;22.20;100.00
14206;BME280;7186;48.800;9.216;2022-08-19T00:50:34;137206.19;;;22.19;100.00
14206;BME280;7186;48.800;9.216;2022-08-19T00:53:00;137202.78;;;22.17;100.00
14206;BME280;7186;48.800;9.216;2022-08-19T00:55:30;137202.78;;;22.17;100.00
14206;BME280;7186;48.800;9.216;2022-08-19T00:58:02;137563.84;;;22.21;100.00
14206;BME280;7186;48.800;9.216;2022-08-19T01:00:28;137548.97;;;22.15;100.00
14206;BME280;7186;48.800;9.216;2022-08-19T01:02:54;137906.63;;;22.17;100.00
14206;BME280;7186;48.800;9.216;2022-08-19T01:05:25;137560.41;;;22.20;100.00
14206;BME280;7186;48.800;9.216;2022-08-19T01:07:53;138257.47;;;22.17;100.00
14206;BME280;7186;48.800;9.216;2022-08-19T01:10:22;137914.69;;;22.21;100.00
14206;BME280;7186;48.800;9.216;2022-08-19T01:12:49;138262.06;;;22.19;100.00
14206;BME280;7186;48.800;9.216;2022-08-19T01:15:17;137907.81;;;22.18;100.00
14206;BME280;7186;48.800;9.216;2022-08-19T01:17:44;138260.91;;;22.18;100.00
14206;BME280;7186;48.800;9.216;2022-08-19T01:20:17;138612.94;;;22.18;100.00
14206;BME280;7186;48.800;9.216;2022-08-19T01:25:13;138617.56;;;22.20;100.00
14206;BME280;7186;48.800;9.216;2022-08-19T01:27:42;138260.91;;;22.18;100.00
14206;BME280;7186;48.800;9.216;2022-08-19T01:30:10;137914.69;;;22.21;100.00
14206;BME280;7186;48.800;9.216;2022-08-19T01:32:35;137910.06;;;22.19;100.00
14206;BME280;7186;48.800;9.216;2022-08-19T01:35:03;138962.69;;;22.17;100.00
14206;BME280;7186;48.800;9.216;2022-08-19T01:37:30;139648.28;;;22.09;100.00
14206;BME280;7186;48.800;9.216;2022-08-19T01:40:06;140347.91;;;22.07;100.00
14206;BME280;7186;48.800;9.216;2022-08-19T01:42:33;139998.09;;;22.08;100.00
14206;BME280;7186;48.800;9.216;2022-08-19T01:44:58;140351.41;;;22.09;100.00
14206;BME280;7186;48.800;9.216;2022-08-19T01:47:24;140354.91;;;22.10;100.00
14206;BME280;7186;48.800;9.216;2022-08-19T01:49:49;140687.16;;;22.02;100.00
14206;BME280;7186;48.800;9.216;2022-08-19T01:52:15;141390.41;;;22.01;100.00
14206;BME280;7186;48.800;9.216;2022-08-19T01:54:40;141391.53;;;22.02;100.00
14206;BME280;7186;48.800;9.216;2022-08-19T01:57:08;142096.06;;;22.02;100.00
14206;BME280;7186;48.800;9.216;2022-08-19T01:59:36;142791.22;;;21.98;100.00
14206;BME280;7186;48.800;9.216;2022-08-19T02:02:04;142787.66;;;21.96;100.00
14206;BME280;7186;48.800;9.216;2022-08-19T02:04:32;143495.97;;;21.98;100.00
14206;BME280;7186;48.800;9.216;2022-08-19T02:06:57;143843.59;;;21.96;100.00
14206;BME280;7186;48.800;9.216;2022-08-19T02:09:22;144190.06;;;21.93;100.00
14206;BME280;7186;48.800;9.216;2022-08-19T02:11:48;143500.78;;;22.00;100.00
14206;BME280;7186;48.800;9.216;2022-08-19T02:14:13;144181.66;;;21.90;100.00
14206;BME280;7186;48.800;9.216;2022-08-19T02:16:38;144886.59;;;21.90;100.00
14206;BME280;7186;48.800;9.216;2022-08-19T02:19:05;145230.69;;;21.86;100.00
14206;BME280;7186;48.800;9.216;2022-08-19T02:21:30;145926.03;;;21.82;100.00
14206;BME280;7186;48.800;9.216;2022-08-19T02:23:56;145930.91;;;21.84;100.00
14206;BME280;7186;48.800;9.216;2022-08-19T02:26:22;146282.25;;;21.84;100.00
14206;BME280;7186;48.800;9.216;2022-08-19T02:28:48;146634.88;;;21.84;100.00
14206;BME280;7186;48.800;9.216;2022-08-19T02:31:17;146631.22;;;21.82;100.00
14206;BME280;7186;48.800;9.216;2022-08-19T02:33:44;147663.41;;;21.72;100.00
14206;BME280;7186;48.800;9.216;2022-08-19T02:36:11;147660.97;;;21.71;100.00
14206;BME280;7186;48.800;9.216;2022-08-19T02:38:37;147677.03;;;21.77;100.00
14206;BME280;7186;48.800;9.216;2022-08-19T02:41:06;147684.41;;;21.80;100.00
14206;BME280;7186;48.800;9.216;2022-08-19T02:43:33;148011.22;;;21.70;100.00
14206;BME280;7186;48.800;9.216;2022-08-19T02:46:11;148712.97;;;21.68;100.00
14206;BME280;7186;48.800;9.216;2022-08-19T02:48:37;148710.47;;;21.67;100.00
14206;BME280;7186;48.800;9.216;2022-08-19T02:51:02;149392.44;;;21.58;100.00
14206;BME280;7186;48.800;9.216;2022-08-19T02:53:28;149409.84;;;21.65;100.00
14206;BME280;7186;48.800;9.216;2022-08-19T02:55:53;149401.13;;;21.61;100.00
14206;BME280;7186;48.800;9.216;2022-08-19T02:58:20;150095.50;;;21.57;100.00
14206;BME280;7186;48.800;9.216;2022-08-19T03:00:49;150095.50;;;21.57;100.00
14206;BME280;7186;48.800;9.216;2022-08-19T03:03:15;150093.03;;;21.56;100.00
14206;BME280;7186;48.800;9.216;2022-08-19T03:05:42;150782.47;;;21.49;100.00
14206;BME280;7186;48.800;9.216;2022-08-19T03:08:08;151113.91;;;21.41;100.00
14206;BME280;7186;48.800;9.216;2022-08-19T03:10:45;151828.53;;;21.44;100.00
14206;BME280;7186;48.800;9.216;2022-08-19T03:13:14;151814.66;;;21.39;100.00
14206;BME280;7186;48.800;9.216;2022-08-19T03:15:44;152173.88;;;21.41;100.00
14206;BME280;7186;48.800;9.216;2022-08-19T03:18:10;152520.50;;;21.39;100.00
14206;BME280;7186;48.800;9.216;2022-08-19T03:20:41;151832.31;;;21.46;100.00
14206;BME280;7186;48.800;9.216;2022-08-19T03:23:06;152167.56;;;21.39;100.00
14206;BME280;7186;48.800;9.216;2022-08-19T03:25:37;152505.28;;;21.33;100.00
14206;BME280;7186;48.800;9.216;2022-08-19T03:28:03;152509.09;;;21.34;100.00
14206;BME280;7186;48.800;9.216;2022-08-19T03:30:28;152858.22;;;21.33;100.00
14206;BME280;7186;48.800;9.216;2022-08-19T03:32:53;152860.75;;;21.34;100.00
14206;BME280;7186;48.800;9.216;2022-08-19T03:35:19;152853.13;;;21.31;100.00
14206;BME280;7186;48.800;9.216;2022-08-19T03:37:45;153194.63;;;21.26;100.00
14206;BME280;7186;48.800;9.216;2022-08-19T03:40:10;153195.91;;;21.27;100.00
14206;BME280;7186;48.800;9.216;2022-08-19T03:42:36;153195.91;;;21.27;100.00
14206;BME280;7186;48.800;9.216;2022-08-19T03:45:02;153180.59;;;21.21;100.00
14206;BME280;7186;48.800;9.216;2022-08-19T03:47:27;153546.28;;;21.26;100.00
14206;BME280;7186;48.800;9.216;2022-08-19T03:49:53;153887.78;;;21.21;100.00
14206;BME280;7186;48.800;9.216;2022-08-19T03:52:18;153886.53;;;21.21;100.00
14206;BME280;7186;48.800;9.216;2022-08-19T03:54:44;153882.69;;;21.19;100.00
14206;BME280;7186;48.800;9.216;2022-08-19T03:57:10;154228.00;;;21.16;100.00
14206;BME280;7186;48.800;9.216;2022-08-19T03:59:37;154583.56;;;21.17;100.00
14206;BME280;7186;48.800;9.216;2022-08-19T04:02:08;154564.25;;;21.10;100.00
14206;BME280;7186;48.800;9.216;2022-08-19T04:04:34;154568.13;;;21.11;100.00
14206;BME280;7186;48.800;9.216;2022-08-19T04:07:01;154579.72;;;21.16;100.00
14206;BME280;7186;48.800;9.216;2022-08-19T04:09:26;154562.97;;;21.09;100.00
14206;BME280;7186;48.800;9.216;2022-08-19T04:11:54;154230.53;;;21.17;100.00
14206;BME280;7186;48.800;9.216;2022-08-19T04:14:23;154575.84;;;21.14;100.00
14206;BME280;7186;48.800;9.216;2022-08-19T04:16:49;154913.41;;;21.08;100.00
14206;BME280;7186;48.800;9.216;2022-08-19T04:19:16;154921.16;;;21.11;100.00
14206;BME280;7186;48.800;9.216;2022-08-19T04:21:44;154917.28;;;21.10;100.00
14206;BME280;7186;48.800;9.216;2022-08-19T04:24:11;154910.84;;;21.07;100.00
14206;BME280;7186;48.800;9.216;2022-08-19T04:26:36;155247.06;;;21.01;100.00
14206;BME280;7186;48.800;9.216;2022-08-19T04:29:14;155239.31;;;20.98;100.00
14206;BME280;7186;48.800;9.216;2022-08-19T04:31:40;155244.50;;;21.00;100.00
14206;BME280;7186;48.800;9.216;2022-08-19T04:34:09;155593.66;;;20.98;100.00
14206;BME280;7186;48.800;9.216;2022-08-19T04:36:39;155600.09;;;21.01;100.00
14206;BME280;7186;48.800;9.216;2022-08-19T04:39:14;155589.75;;;20.97;100.00
14206;BME280;7186;48.800;9.216;2022-08-19T04:41:40;155937.59;;;20.95;100.00
14206;BME280;7186;48.800;9.216;2022-08-19T04:44:24;155931.06;;;20.92;100.00
14206;BME280;7186;48.800;9.216;2022-08-19T04:46:51;155934.97;;;20.94;100.00
14206;BME280;7186;48.800;9.216;2022-08-19T04:49:19;155949.28;;;20.99;100.00
14206;BME280;7186;48.800;9.216;2022-08-19T04:51:47;155257.41;;;21.05;100.00
14206;BME280;7186;48.800;9.216;2022-08-19T04:54:13;155254.84;;;21.04;100.00
14206;BME280;7186;48.800;9.216;2022-08-19T04:56:40;155605.31;;;21.03;100.00
14206;BME280;7186;48.800;9.216;2022-08-19T04:59:06;155244.50;;;21.00;100.00
14206;BME280;7186;48.800;9.216;2022-08-19T05:01:32;155589.75;;;20.97;100.00
14206;BME280;7186;48.800;9.216;2022-08-19T05:04:04;155915.50;;;20.86;100.00
14206;BME280;7186;48.800;9.216;2022-08-19T05:06:31;155616.97;;;21.07;100.00
14206;BME280;7186;48.800;9.216;2022-08-19T05:09:02;155592.34;;;20.98;100.00
14206;BME280;7186;48.800;9.216;2022-08-19T05:11:34;155607.88;;;21.04;100.00
14206;BME280;7186;48.800;9.216;2022-08-19T05:13:59;155592.34;;;20.98;100.00
14206;BME280;7186;48.800;9.216;2022-08-19T05:16:26;155600.09;;;21.01;100.00
14206;BME280;7186;48.800;9.216;2022-08-19T05:18:52;155937.59;;;20.95;100.00
14206;BME280;7186;48.800;9.216;2022-08-19T05:21:38;155591.03;;;20.97;100.00
14206;BME280;7186;48.800;9.216;2022-08-19T05:24:23;155597.53;;;21.00;100.00
14206;BME280;7186;48.800;9.216;2022-08-19T05:26:50;155962.28;;;21.04;100.00
14206;BME280;7186;48.800;9.216;2022-08-19T05:29:20;155600.09;;;21.01;100.00
14206;BME280;7186;48.800;9.216;2022-08-19T05:31:47;155254.84;;;21.04;100.00
14206;BME280;7186;48.800;9.216;2022-08-19T05:34:15;155250.94;;;21.02;100.00
14206;BME280;7186;48.800;9.216;2022-08-19T05:36:42;155254.84;;;21.04;100.00
14206;BME280;7186;48.800;9.216;2022-08-19T05:39:10;154958.56;;;21.26;100.00
14206;BME280;7186;48.800;9.216;2022-08-19T05:41:36;154592.59;;;21.21;100.00
14206;BME280;7186;48.800;9.216;2022-08-19T05:44:04;154614.47;;;21.29;100.00
14206;BME280;7186;48.800;9.216;2022-08-19T05:46:32;154590.00;;;21.20;100.00
14206;BME280;7186;48.800;9.216;2022-08-19T05:48:57;154595.16;;;21.22;100.00
14206;BME280;7186;48.800;9.216;2022-08-19T05:51:24;154623.50;;;21.33;100.00
14206;BME280;7186;48.800;9.216;2022-08-19T05:53:50;154950.81;;;21.23;100.00
14206;BME280;7186;48.800;9.216;2022-08-19T05:56:16;154609.31;;;21.27;100.00
14206;BME280;7186;48.800;9.216;2022-08-19T05:58:43;155306.56;;;21.24;100.00
14206;BME280;7186;48.800;9.216;2022-08-19T06:01:12;154966.31;;;21.29;100.00
14206;BME280;7186;48.800;9.216;2022-08-19T06:03:38;154957.28;;;21.25;100.00
14206;BME280;7186;48.800;9.216;2022-08-19T06:06:06;155301.38;;;21.22;100.00
14206;BME280;7186;48.800;9.216;2022-08-19T06:08:32;154974.03;;;21.32;100.00
14206;BME280;7186;48.800;9.216;2022-08-19T06:14:00;154629.91;;;21.35;100.00
14206;BME280;7186;48.800;9.216;2022-08-19T06:16:26;154266.50;;;21.31;100.00
14206;BME280;7186;48.800;9.216;2022-08-19T06:18:54;154618.34;;;21.31;100.00
14206;BME280;7186;48.800;9.216;2022-08-19T06:21:23;154275.47;;;21.35;100.00
14206;BME280;7186;48.800;9.216;2022-08-19T06:23:49;154609.31;;;21.27;100.00
14206;BME280;7186;48.800;9.216;2022-08-19T06:26:17;155328.53;;;21.32;100.00
14206;BME280;7186;48.800;9.216;2022-08-19T06:28:42;156041.50;;;21.35;100.00
14206;BME280;7186;48.800;9.216;2022-08-19T06:33:42;156714.25;;;21.22;100.00
14206;BME280;7186;48.800;9.216;2022-08-19T06:36:16;157062.28;;;21.20;100.00
14206;BME280;7186;48.800;9.216;2022-08-19T06:38:41;157419.53;;;21.21;100.00
14206;BME280;7186;48.800;9.216;2022-08-19T06:41:07;157427.41;;;21.24;100.00
14206;BME280;7186;48.800;9.216;2022-08-19T06:43:33;157434.00;;;21.27;100.00
14206;BME280;7186;48.800;9.216;2022-08-19T06:45:58;157778.19;;;21.23;100.00
14206;BME280;7186;48.800;9.216;2022-08-19T06:48:24;157791.34;;;21.28;100.00
14206;BME280;7186;48.800;9.216;2022-08-19T06:50:49;158463.94;;;21.15;100.00
14206;BME280;7186;48.800;9.216;2022-08-19T06:53:16;158486.38;;;21.24;100.00
14206;BME280;7186;48.800;9.216;2022-08-19T06:55:44;157784.75;;;21.26;100.00
14206;BME280;7186;48.800;9.216;2022-08-19T06:58:10;158143.44;;;21.28;100.00
14206;BME280;7186;48.800;9.216;2022-08-19T07:00:36;158483.72;;;21.23;100.00
14206;BME280;7186;48.800;9.216;2022-08-19T07:03:02;158486.38;;;21.24;100.00
14206;BME280;7186;48.800;9.216;2022-08-19T07:05:27;158835.91;;;21.22;100.00
14206;BME280;7186;48.800;9.216;2022-08-19T07:07:53;159177.50;;;21.18;100.00
14206;BME280;7186;48.800;9.216;2022-08-19T07:10:19;158834.56;;;21.22;100.00
14206;BME280;7186;48.800;9.216;2022-08-19T07:13:04;158842.50;;;21.25;100.00
14206;BME280;7186;48.800;9.216;2022-08-19T07:15:30;158831.94;;;21.21;100.00
14206;BME280;7186;48.800;9.216;2022-08-19T07:17:56;158847.81;;;21.27;100.00
14206;BME280;7186;48.800;9.216;2022-08-19T07:20:21;158850.44;;;21.28;100.00
14206;BME280;7186;48.800;9.216;2022-08-19T07:22:46;158475.81;;;21.20;100.00
14206;BME280;7186;48.800;9.216;2022-08-19T07:25:13;158123.69;;;21.20;100.00
14206;BME280;7186;48.800;9.216;2022-08-19T07:27:38;157753.22;;;21.14;100.00
14206;BME280;7186;48.800;9.216;2022-08-19T07:30:04;158111.84;;;21.16;100.00
14206;BME280;7186;48.800;9.216;2022-08-19T07:32:30;158143.44;;;21.28;100.00
14206;BME280;7186;48.800;9.216;2022-08-19T07:34:56;157456.28;;;21.35;100.00
14206;BME280;7186;48.800;9.216;2022-08-19T07:37:21;156746.88;;;21.34;100.00
14206;BME280;7186;48.800;9.216;2022-08-19T07:39:46;157104.19;;;21.36;100.00
14206;BME280;7186;48.800;9.216;2022-08-19T07:42:12;156746.88;;;21.34;100.00
14206;BME280;7186;48.800;9.216;2022-08-19T07:44:39;156381.81;;;21.30;100.00
14206;BME280;7186;48.800;9.216;2022-08-19T07:47:05;156038.91;;;21.34;100.00
14206;BME280;7186;48.800;9.216;2022-08-19T07:49:32;156042.81;;;21.35;100.00
14206;BME280;7186;48.800;9.216;2022-08-19T07:52:04;155355.69;;;21.43;100.00
14206;BME280;7186;48.800;9.216;2022-08-19T07:54:31;154321.72;;;21.53;100.00
14206;BME280;7186;48.800;9.216;2022-08-19T07:56:59;155034.72;;;21.55;100.00
14206;BME280;7186;48.800;9.216;2022-08-19T07:59:25;155388.03;;;21.55;100.00
14206;BME280;7186;48.800;9.216;2022-08-19T08:01:50;155708.97;;;21.43;100.00
14206;BME280;7186;48.800;9.216;2022-08-19T08:04:17;156792.53;;;21.52;100.00
14206;BME280;7186;48.800;9.216;2022-08-19T08:07:02;158188.25;;;21.45;100.00
14206;BME280;7186;48.800;9.216;2022-08-19T08:09:46;158185.56;;;21.44;100.00
14206;BME280;7186;48.800;9.216;2022-08-19T08:12:18;159231.81;;;21.38;100.00
14206;BME280;7186;48.800;9.216;2022-08-19T08:14:49;158866.31;;;21.34;100.00
14206;BME280;7186;48.800;9.216;2022-08-19T08:17:16;158872.91;;;21.36;100.00
14206;BME280;7186;48.800;9.216;2022-08-19T08:19:44;158861.00;;;21.32;100.00
14206;BME280;7186;48.800;9.216;2022-08-19T08:22:11;159554.94;;;21.27;100.00
14206;BME280;7186;48.800;9.216;2022-08-19T08:25:15;159544.25;;;21.23;100.00
14206;BME280;7186;48.800;9.216;2022-08-19T08:27:44;159557.56;;;21.28;100.00
14206;BME280;7186;48.800;9.216;2022-08-19T08:30:21;159586.81;;;21.39;100.00
14206;BME280;7186;48.800;9.216;2022-08-19T08:32:48;159235.81;;;21.40;100.00
14206;BME280;7186;48.800;9.216;2022-08-19T08:35:15;159923.16;;;21.32;100.00
14206;BME280;7186;48.800;9.216;2022-08-19T08:37:42;159893.84;;;21.21;100.00
14206;BME280;7186;48.800;9.216;2022-08-19T08:40:46;159901.84;;;21.24;100.00
14206;BME280;7186;48.800;9.216;2022-08-19T08:46:07;156187.06;;;24.65;100.00
14206;BME280;7186;48.800;9.216;2022-08-19T08:48:46;110255.13;;;26.25;100.00
14206;BME280;7186;48.800;9.216;2022-08-19T08:51:28;103172.66;;;26.70;100.00
14206;BME280;7186;48.800;9.216;2022-08-19T08:53:55;65264.09;;;-140.80;100.00
14206;BME280;7186;48.800;9.216;2022-08-19T08:56:21;65264.09;;;-140.80;100.00
14206;BME280;7186;48.800;9.216;2022-08-19T08:59:04;65264.09;;;-140.80;100.00
14206;BME280;7186;48.800;9.216;2022-08-19T09:01:35;65264.09;;;-140.80;100.00
14206;BME280;7186;48.800;9.216;2022-08-19T09:04:05;65264.09;;;-140.80;100.00
14206;BME280;7186;48.800;9.216;2022-08-19T09:09:10;65264.09;;;-140.80;100.00
